createdAt,value
2022-08-03T00:00:26.576Z,22.26
2022-08-03T00:02:53.955Z,22.22
2022-08-03T00:05:20.854Z,22.21
2022-08-03T00:07:49.402Z,22.18
2022-08-03T00:10:16.943Z,22.14
2022-08-03T00:12:43.787Z,22.10
2022-08-03T00:15:15.232Z,22.06
2022-08-03T00:17:53.613Z,22.03
2022-08-03T00:20:21.986Z,21.99
2022-08-03T00:22:49.272Z,21.97
2022-08-03T00:25:16.316Z,21.94
2022-08-03T00:27:42.947Z,21.92
2022-08-03T00:30:09.853Z,21.89
2022-08-03T00:32:36.475Z,21.88
2022-08-03T00:35:07.977Z,21.89
2022-08-03T00:37:40.610Z,21.86
2022-08-03T00:40:12.656Z,21.83
2022-08-03T00:42:53.710Z,21.77
2022-08-03T00:45:41.406Z,21.74
2022-08-03T00:48:29.772Z,21.75
2022-08-03T00:50:56.074Z,21.72
2022-08-03T00:53:22.822Z,21.73
2022-08-03T00:55:49.388Z,21.72
2022-08-03T00:58:16.162Z,21.72
2022-08-03T01:00:43.066Z,21.69
2022-08-03T01:03:10.744Z,21.66
2022-08-03T01:05:45.527Z,21.62
2022-08-03T01:08:24.276Z,21.60
2022-08-03T01:11:12.123Z,21.56
2022-08-03T01:14:01.509Z,21.50
2022-08-03T01:16:58.967Z,21.45
2022-08-03T01:19:34.533Z,21.39
2022-08-03T01:22:37.368Z,21.32
2022-08-03T01:25:25.163Z,21.29
2022-08-03T01:28:18.139Z,21.26
2022-08-03T01:30:46.726Z,21.22
2022-08-03T01:33:20.198Z,21.17
2022-08-03T01:35:53.356Z,21.15
2022-08-03T01:38:28.914Z,21.09
2022-08-03T01:40:56.836Z,21.06
2022-08-03T01:44:26.898Z,21.04
2022-08-03T01:46:17.192Z,21.04
2022-08-03T01:48:46.180Z,21.02
2022-08-03T01:51:15.733Z,21.02
2022-08-03T01:53:42.976Z,21.01
2022-08-03T01:56:10.604Z,20.97
2022-08-03T01:58:39.706Z,20.92
2022-08-03T02:01:07.765Z,20.87
2022-08-03T02:03:38.335Z,20.84
2022-08-03T02:07:01.100Z,20.83
2022-08-03T02:09:15.071Z,20.82
2022-08-03T02:11:43.574Z,20.78
2022-08-03T02:14:11.133Z,20.72
2022-08-03T02:16:38.112Z,20.68
2022-08-03T02:19:07.465Z,20.68
2022-08-03T02:21:57.494Z,20.67
2022-08-03T02:24:24.119Z,20.66
2022-08-03T02:26:53.249Z,20.64
2022-08-03T02:29:40.310Z,20.61
2022-08-03T02:32:12.507Z,20.58
2022-08-03T02:34:40.366Z,20.58
2022-08-03T02:37:08.655Z,20.58
2022-08-03T02:39:36.813Z,20.58
2022-08-03T02:42:06.497Z,20.59
2022-08-03T02:44:35.025Z,20.59
2022-08-03T02:47:07.139Z,20.58
2022-08-03T02:49:50.678Z,20.56
2022-08-03T02:52:21.449Z,20.52
2022-08-03T02:54:51.184Z,20.51
2022-08-03T02:57:19.944Z,20.49
2022-08-03T02:59:47.626Z,20.50
2022-08-03T03:02:17.078Z,20.49
2022-08-03T03:05:50.953Z,20.48
2022-08-03T03:07:50.465Z,20.46
2022-08-03T03:10:23.310Z,20.42
2022-08-03T03:12:56.805Z,20.39
2022-08-03T03:15:27.854Z,20.37
2022-08-03T03:17:55.485Z,20.35
2022-08-03T03:20:29.055Z,20.34
2022-08-03T03:23:00.175Z,20.32
2022-08-03T03:25:28.842Z,20.29
2022-08-03T03:27:55.679Z,20.28
2022-08-03T03:30:24.826Z,20.27
2022-08-03T03:32:52.586Z,20.26
2022-08-03T03:35:19.517Z,20.24
2022-08-03T03:37:46.335Z,20.23
2022-08-03T03:40:14.424Z,20.21
2022-08-03T03:42:41.606Z,20.20
2022-08-03T03:45:09.031Z,20.17
2022-08-03T03:47:36.056Z,20.18
2022-08-03T03:50:06.723Z,20.16
2022-08-03T03:52:34.275Z,20.13
2022-08-03T03:55:01.667Z,20.13
2022-08-03T03:57:29.451Z,20.12
2022-08-03T03:59:56.350Z,20.08
2022-08-03T04:02:23.075Z,20.05
2022-08-03T04:05:08.233Z,20.03
2022-08-03T04:08:14.528Z,20.00
2022-08-03T04:10:59.083Z,19.97
2022-08-03T04:13:29.549Z,19.96
2022-08-03T04:15:58.379Z,19.93
2022-08-03T04:18:28.173Z,19.93
2022-08-03T04:21:01.586Z,19.90
2022-08-03T04:23:31.317Z,19.91
2022-08-03T04:25:59.387Z,19.90
2022-08-03T04:28:31.130Z,19.90
2022-08-03T04:31:01.037Z,19.93
2022-08-03T04:33:31.177Z,19.94
2022-08-03T04:36:03.462Z,19.94
2022-08-03T04:38:36.710Z,19.95
2022-08-03T04:41:04.160Z,19.97
2022-08-03T04:43:34.245Z,19.98
2022-08-03T04:46:02.698Z,19.99
2022-08-03T04:48:29.390Z,20.02
2022-08-03T04:50:56.357Z,20.05
2022-08-03T04:53:23.271Z,20.12
2022-08-03T04:55:49.882Z,20.34
2022-08-03T04:58:16.467Z,20.98
2022-08-03T05:00:43.408Z,21.49
2022-08-03T05:03:23.521Z,21.88
2022-08-03T05:06:01.670Z,22.15
2022-08-03T05:08:28.935Z,22.42
2022-08-03T05:10:59.291Z,22.62
2022-08-03T05:13:26.333Z,22.75
2022-08-03T05:15:52.956Z,22.83
2022-08-03T05:18:19.965Z,22.94
2022-08-03T05:20:46.662Z,23.08
2022-08-03T05:23:13.236Z,23.27
2022-08-03T05:25:39.832Z,23.38
2022-08-03T05:28:12.807Z,23.46
2022-08-03T05:30:39.360Z,23.56
2022-08-03T05:33:05.886Z,23.59
2022-08-03T05:35:57.475Z,23.58
2022-08-03T05:38:28.084Z,23.60
2022-08-03T05:41:23.701Z,23.72
2022-08-03T05:43:44.911Z,23.88
2022-08-03T05:46:12.934Z,23.98
2022-08-03T05:48:41.228Z,24.00
2022-08-03T05:51:11.681Z,23.94
2022-08-03T05:53:43.007Z,23.86
2022-08-03T05:56:13.758Z,23.73
2022-08-03T05:58:43.671Z,23.60
2022-08-03T06:01:10.293Z,23.53
2022-08-03T06:03:36.904Z,23.48
2022-08-03T06:06:03.556Z,23.53
2022-08-03T06:08:30.125Z,23.60
2022-08-03T06:10:56.636Z,23.65
2022-08-03T06:13:23.299Z,23.75
2022-08-03T06:15:49.868Z,23.88
2022-08-03T06:18:16.456Z,24.01
2022-08-03T06:20:43.383Z,24.13
2022-08-03T06:23:15.942Z,24.28
2022-08-03T06:25:43.303Z,24.41
2022-08-03T06:28:19.055Z,24.53
2022-08-03T06:30:55.894Z,24.65
2022-08-03T06:33:26.294Z,24.75
2022-08-03T06:36:12.856Z,24.79
2022-08-03T06:38:39.416Z,24.79
2022-08-03T06:41:05.930Z,24.83
2022-08-03T06:43:35.985Z,24.91
2022-08-03T06:46:02.683Z,24.89
2022-08-03T06:48:29.258Z,24.93
2022-08-03T06:50:55.854Z,25.04
2022-08-03T06:53:22.645Z,25.13
2022-08-03T06:55:54.241Z,25.20
2022-08-03T06:58:21.421Z,25.17
2022-08-03T07:00:48.053Z,25.15
2022-08-03T07:03:15.180Z,25.19
2022-08-03T07:05:42.774Z,25.23
2022-08-03T07:08:10.471Z,25.30
2022-08-03T07:10:37.327Z,25.43
2022-08-03T07:13:05.382Z,25.60
2022-08-03T07:15:38.430Z,25.79
2022-08-03T07:18:29.289Z,25.98
2022-08-03T07:20:58.683Z,26.10
2022-08-03T07:23:25.754Z,26.25
2022-08-03T07:25:52.626Z,26.38
2022-08-03T07:28:20.017Z,26.52
2022-08-03T07:30:47.790Z,26.57
2022-08-03T07:33:15.220Z,26.60
2022-08-03T07:35:42.359Z,26.68
2022-08-03T07:38:08.933Z,26.78
2022-08-03T07:40:35.540Z,26.88
2022-08-03T07:43:03.436Z,26.92
2022-08-03T07:45:31.726Z,26.93
2022-08-03T07:47:58.408Z,26.97
2022-08-03T07:50:25.516Z,27.04
2022-08-03T07:52:53.634Z,27.17
2022-08-03T07:55:22.607Z,27.33
2022-08-03T07:58:10.113Z,27.41
2022-08-03T08:00:36.907Z,27.49
2022-08-03T08:03:04.799Z,27.55
2022-08-03T08:05:32.001Z,27.64
2022-08-03T08:07:58.614Z,27.77
2022-08-03T08:10:25.239Z,27.86
2022-08-03T08:12:52.403Z,27.94
2022-08-03T08:15:19.087Z,28.05
2022-08-03T08:17:49.497Z,28.10
2022-08-03T08:20:25.183Z,28.22
2022-08-03T08:22:57.110Z,28.41
2022-08-03T08:25:25.100Z,28.58
2022-08-03T08:28:22.194Z,28.69
2022-08-03T08:30:38.527Z,28.88
2022-08-03T08:33:05.158Z,29.01
2022-08-03T08:35:31.770Z,29.06
2022-08-03T08:38:00.350Z,29.17
2022-08-03T08:40:32.400Z,29.33
2022-08-03T08:42:59.315Z,29.43
2022-08-03T08:45:26.601Z,29.54
2022-08-03T08:48:00.824Z,29.64
2022-08-03T08:50:29.748Z,29.78
2022-08-03T08:53:00.384Z,29.90
2022-08-03T08:55:27.069Z,29.99
2022-08-03T08:58:01.564Z,30.05
2022-08-03T09:00:28.217Z,30.06
2022-08-03T09:02:54.885Z,30.14
2022-08-03T09:05:35.721Z,30.24
2022-08-03T09:08:08.158Z,30.30
2022-08-03T09:10:35.338Z,30.41
2022-08-03T09:13:02.096Z,30.50
2022-08-03T09:15:31.665Z,30.54
2022-08-03T09:18:03.157Z,30.69
2022-08-03T09:20:35.104Z,30.81
2022-08-03T09:23:44.701Z,30.86
2022-08-03T09:25:58.305Z,30.82
2022-08-03T09:28:57.986Z,30.88
2022-08-03T09:31:43.779Z,30.99
2022-08-03T09:34:12.764Z,31.16
2022-08-03T09:36:39.326Z,31.30
2022-08-03T09:39:10.999Z,31.40
2022-08-03T09:41:42.825Z,31.38
2022-08-03T09:44:24.008Z,31.45
2022-08-03T09:46:56.685Z,31.46
2022-08-03T09:49:24.506Z,31.49
2022-08-03T09:52:31.919Z,31.51
2022-08-03T09:54:38.470Z,31.61
2022-08-03T09:57:05.266Z,31.70
2022-08-03T09:59:33.300Z,31.76
2022-08-03T10:02:00.674Z,31.85
2022-08-03T10:04:27.789Z,31.93
2022-08-03T10:07:07.010Z,32.04
2022-08-03T10:09:33.752Z,32.16
2022-08-03T10:12:11.639Z,32.25
2022-08-03T10:14:41.918Z,32.37
2022-08-03T10:17:09.870Z,32.42
2022-08-03T10:19:36.825Z,32.42
2022-08-03T10:22:14.016Z,32.47
2022-08-03T10:24:52.534Z,32.42
2022-08-03T10:27:20.661Z,32.35
2022-08-03T10:29:54.564Z,32.45
2022-08-03T10:32:58.508Z,32.56
2022-08-03T10:35:26.192Z,32.60
2022-08-03T10:38:00.533Z,32.70
2022-08-03T10:43:22.929Z,32.91
2022-08-03T10:45:50.474Z,33.12
2022-08-03T10:48:18.857Z,33.26
2022-08-03T10:50:46.842Z,33.31
2022-08-03T10:53:14.694Z,33.42
2022-08-03T10:56:03.539Z,33.54
2022-08-03T10:58:53.128Z,33.60
2022-08-03T11:01:58.262Z,33.53
2022-08-03T11:04:27.246Z,33.70
2022-08-03T11:07:26.557Z,33.78
2022-08-03T11:09:55.437Z,33.92
2022-08-03T11:12:29.938Z,34.07
2022-08-03T11:15:02.278Z,34.22
2022-08-03T11:17:29.154Z,34.17
2022-08-03T11:19:57.227Z,34.22
2022-08-03T11:22:25.447Z,34.36
2022-08-03T11:24:54.186Z,34.32
2022-08-03T11:27:23.013Z,34.23
2022-08-03T11:30:03.601Z,34.13
2022-08-03T11:32:46.487Z,34.24
2022-08-03T11:35:27.663Z,34.47
2022-08-03T11:38:03.221Z,34.57
2022-08-03T11:40:44.607Z,34.74
2022-08-03T11:43:30.787Z,34.76
2022-08-03T11:46:06.729Z,34.70
2022-08-03T11:48:37.909Z,34.50
2022-08-03T11:51:18.702Z,34.63
2022-08-03T11:53:47.815Z,34.83
2022-08-03T11:56:14.454Z,34.95
2022-08-03T11:59:19.417Z,35.08
2022-08-03T12:01:41.995Z,35.19
2022-08-03T12:04:08.670Z,35.23
2022-08-03T12:06:54.890Z,35.31
2022-08-03T12:09:21.987Z,35.35
2022-08-03T12:11:59.994Z,35.41
2022-08-03T12:14:50.040Z,35.45
2022-08-03T12:17:14.891Z,35.63
2022-08-03T12:19:44.628Z,35.74
2022-08-03T12:22:11.260Z,35.74
2022-08-03T12:24:46.848Z,35.74
2022-08-03T12:27:23.273Z,35.82
2022-08-03T12:29:58.451Z,35.84
2022-08-03T12:32:26.548Z,35.90
2022-08-03T12:34:53.249Z,35.97
2022-08-03T12:37:23.356Z,36.05
2022-08-03T12:40:02.981Z,36.10
2022-08-03T12:42:32.996Z,36.17
2022-08-03T12:44:59.614Z,36.33
2022-08-03T12:47:26.145Z,36.23
2022-08-03T12:49:53.954Z,36.18
2022-08-03T12:52:23.164Z,36.18
2022-08-03T12:54:57.011Z,36.14
2022-08-03T12:57:24.740Z,36.25
2022-08-03T12:59:55.668Z,36.42
2022-08-03T13:02:24.724Z,36.41
2022-08-03T13:04:53.074Z,36.13
2022-08-03T13:07:21.127Z,35.83
2022-08-03T13:09:55.287Z,35.87
2022-08-03T13:12:27.528Z,35.90
2022-08-03T13:15:00.877Z,35.91
2022-08-03T13:17:27.936Z,36.15
2022-08-03T13:19:54.831Z,36.32
2022-08-03T13:22:29.020Z,36.47
2022-08-03T13:24:57.713Z,36.59
2022-08-03T13:28:03.509Z,36.60
2022-08-03T13:30:12.151Z,36.51
2022-08-03T13:32:38.878Z,36.57
2022-08-03T13:35:06.152Z,36.64
2022-08-03T13:37:33.053Z,36.83
2022-08-03T13:40:03.226Z,37.11
2022-08-03T13:42:33.072Z,37.18
2022-08-03T13:45:00.787Z,37.34
2022-08-03T13:47:28.245Z,37.57
2022-08-03T13:50:00.802Z,37.74
2022-08-03T13:52:33.289Z,37.75
2022-08-03T13:55:00.297Z,37.83
2022-08-03T13:58:03.079Z,37.79
2022-08-03T14:00:26.542Z,37.90
2022-08-03T14:03:02.743Z,38.13
2022-08-03T14:05:32.079Z,38.33
2022-08-03T14:08:04.705Z,38.45
2022-08-03T14:10:36.843Z,38.60
2022-08-03T14:13:04.324Z,38.80
2022-08-03T14:15:31.401Z,39.19
2022-08-03T14:17:58.481Z,39.69
2022-08-03T14:20:37.773Z,40.22
2022-08-03T14:23:14.119Z,40.77
2022-08-03T14:25:43.511Z,40.89
2022-08-03T14:28:23.128Z,41.17
2022-08-03T14:30:51.281Z,41.50
2022-08-03T14:33:17.965Z,41.82
2022-08-03T14:35:44.580Z,42.08
2022-08-03T14:38:11.180Z,42.15
2022-08-03T14:40:37.965Z,42.22
2022-08-03T14:43:04.541Z,42.46
2022-08-03T14:45:31.303Z,42.84
2022-08-03T14:50:30.058Z,43.14
2022-08-03T14:50:51.353Z,43.47
2022-08-03T14:53:18.284Z,43.81
2022-08-03T14:55:50.089Z,44.21
2022-08-03T14:58:20.604Z,44.44
2022-08-03T15:00:47.324Z,44.48
2022-08-03T15:03:16.599Z,44.62
2022-08-03T15:05:43.967Z,44.77
2022-08-03T15:08:10.392Z,44.78
2022-08-03T15:10:44.358Z,45.24
2022-08-03T15:13:13.322Z,45.52
2022-08-03T15:15:40.971Z,45.73
2022-08-03T15:18:08.013Z,45.80
2022-08-03T15:20:50.172Z,45.84
2022-08-03T15:23:17.878Z,45.73
2022-08-03T15:26:03.787Z,45.89
2022-08-03T15:28:32.834Z,46.02
2022-08-03T15:30:59.839Z,46.07
2022-08-03T15:33:26.426Z,45.78
2022-08-03T15:35:53.382Z,45.61
2022-08-03T15:38:26.268Z,45.74
2022-08-03T15:40:54.623Z,45.79
2022-08-03T15:43:22.699Z,45.42
2022-08-03T15:45:54.611Z,45.27
2022-08-03T15:48:36.116Z,45.33
2022-08-03T15:51:02.717Z,45.48
2022-08-03T15:53:29.272Z,45.61
2022-08-03T15:55:55.894Z,45.77
2022-08-03T15:59:09.293Z,45.94
2022-08-03T16:01:09.206Z,46.08
2022-08-03T16:03:35.910Z,45.97
2022-08-03T16:06:04.127Z,45.80
2022-08-03T16:08:31.118Z,45.71
2022-08-03T16:10:58.983Z,45.76
2022-08-03T16:14:11.960Z,45.79
2022-08-03T16:16:13.581Z,45.75
2022-08-03T16:18:40.179Z,45.90
2022-08-03T16:21:06.915Z,46.03
2022-08-03T16:23:39.628Z,45.84
2022-08-03T16:26:09.535Z,45.92
2022-08-03T16:28:38.173Z,46.02
2022-08-03T16:31:06.243Z,46.07
2022-08-03T16:33:33.671Z,46.03
2022-08-03T16:36:00.548Z,45.98
2022-08-03T16:38:27.117Z,46.11
2022-08-03T16:40:53.679Z,46.18
2022-08-03T16:43:22.434Z,46.16
2022-08-03T16:45:49.298Z,46.08
2022-08-03T16:48:17.332Z,46.05
2022-08-03T16:50:44.520Z,46.03
2022-08-03T16:53:16.468Z,46.12
2022-08-03T16:55:52.372Z,46.10
2022-08-03T16:58:34.801Z,46.05
2022-08-03T17:01:24.201Z,45.98
2022-08-03T17:04:03.491Z,45.95
2022-08-03T17:06:36.158Z,45.80
2022-08-03T17:09:18.203Z,45.60
2022-08-03T17:11:47.836Z,45.41
2022-08-03T17:14:28.399Z,45.14
2022-08-03T17:17:00.992Z,44.76
2022-08-03T17:19:31.200Z,44.14
2022-08-03T17:22:01.613Z,43.05
2022-08-03T17:24:41.487Z,42.19
2022-08-03T17:28:41.998Z,41.43
2022-08-03T17:30:10.079Z,40.51
2022-08-03T17:32:42.231Z,40.04
2022-08-03T17:35:10.456Z,39.52
2022-08-03T17:37:57.557Z,39.05
2022-08-03T17:40:23.793Z,38.57
2022-08-03T17:42:51.073Z,38.19
2022-08-03T17:45:18.083Z,37.85
2022-08-03T17:47:45.497Z,37.57
2022-08-03T17:50:33.081Z,37.31
2022-08-03T17:53:15.179Z,37.00
2022-08-03T17:55:59.577Z,36.66
2022-08-03T17:59:14.422Z,36.37
2022-08-03T18:02:30.469Z,36.01
2022-08-03T18:05:16.657Z,35.66
2022-08-03T18:08:01.619Z,35.41
2022-08-03T18:10:35.732Z,35.16
2022-08-03T18:13:14.579Z,34.94
2022-08-03T18:16:01.816Z,34.73
2022-08-03T18:18:36.491Z,34.52
2022-08-03T18:21:09.295Z,34.33
2022-08-03T18:23:44.548Z,34.16
2022-08-03T18:26:17.112Z,34.01
2022-08-03T18:28:44.601Z,33.87
2022-08-03T18:31:13.259Z,33.70
2022-08-03T18:34:16.308Z,33.50
2022-08-03T18:36:48.983Z,33.31
2022-08-03T18:39:15.993Z,33.14
2022-08-03T18:41:46.632Z,32.99
2022-08-03T18:44:52.821Z,32.89
2022-08-03T18:47:16.987Z,32.76
2022-08-03T18:49:52.846Z,32.64
2022-08-03T18:52:31.759Z,32.52
2022-08-03T18:55:19.794Z,32.39
2022-08-03T18:57:55.522Z,32.20
2022-08-03T19:00:42.598Z,32.04
2022-08-03T19:03:20.703Z,31.87
2022-08-03T19:06:08.619Z,31.73
2022-08-03T19:09:16.910Z,31.58
2022-08-03T19:12:26.140Z,31.46
2022-08-03T19:14:43.520Z,31.31
2022-08-03T19:17:12.536Z,31.19
2022-08-03T19:19:44.900Z,31.05
2022-08-03T19:22:16.253Z,30.95
2022-08-03T19:24:45.835Z,30.85
2022-08-03T19:27:13.430Z,30.74
2022-08-03T19:29:59.435Z,30.61
2022-08-03T19:32:29.745Z,30.48
2022-08-03T19:34:59.465Z,30.42
2022-08-03T19:37:38.619Z,30.33
2022-08-03T19:40:12.368Z,30.25
2022-08-03T19:42:43.875Z,30.20
2022-08-03T19:45:14.796Z,30.10
2022-08-03T19:47:45.777Z,30.02
2022-08-03T19:50:14.327Z,29.96
2022-08-03T19:52:43.896Z,29.89
2022-08-03T19:55:12.517Z,29.81
2022-08-03T19:57:42.285Z,29.72
2022-08-03T20:00:12.516Z,29.64
2022-08-03T20:02:41.218Z,29.58
2022-08-03T20:05:15.495Z,29.53
2022-08-03T20:07:47.840Z,29.47
2022-08-03T20:10:16.640Z,29.40
2022-08-03T20:12:45.336Z,29.32
2022-08-03T20:15:12.330Z,29.25
2022-08-03T20:17:55.994Z,29.18
2022-08-03T20:20:31.165Z,29.08
2022-08-03T20:22:59.566Z,29.02
2022-08-03T20:25:57.038Z,28.93
2022-08-03T20:28:50.048Z,28.83
2022-08-03T20:31:36.179Z,28.75
2022-08-03T20:34:03.593Z,28.70
2022-08-03T20:36:30.313Z,28.62
2022-08-03T20:38:58.194Z,28.55
2022-08-03T20:41:25.146Z,28.47
2022-08-03T20:43:51.729Z,28.42
2022-08-03T20:46:28.993Z,28.39
2022-08-03T20:48:58.814Z,28.36
2022-08-03T20:51:50.083Z,28.31
2022-08-03T20:54:29.388Z,28.22
2022-08-03T20:57:03.704Z,28.13
2022-08-03T20:59:46.838Z,28.06
2022-08-03T21:02:29.531Z,27.99
2022-08-03T21:04:59.321Z,27.90
2022-08-03T21:07:45.905Z,27.83
2022-08-03T21:10:21.303Z,27.78
2022-08-03T21:13:14.084Z,27.71
2022-08-03T21:16:11.893Z,27.67
2022-08-03T21:18:38.010Z,27.59
2022-08-03T21:21:07.043Z,27.53
2022-08-03T21:23:47.828Z,27.48
2022-08-03T21:26:16.753Z,27.43
2022-08-03T21:28:45.192Z,27.39
2022-08-03T21:31:12.477Z,27.36
2022-08-03T21:33:40.860Z,27.35
2022-08-03T21:36:11.030Z,27.32
2022-08-03T21:38:37.734Z,27.29
2022-08-03T21:41:04.394Z,27.24
2022-08-03T21:43:31.003Z,27.18
2022-08-03T21:46:05.772Z,27.10
2022-08-03T21:48:40.905Z,27.04
2022-08-03T21:51:12.240Z,27.00
2022-08-03T21:54:02.224Z,26.92
2022-08-03T21:56:29.488Z,26.86
2022-08-03T21:59:05.018Z,26.80
2022-08-03T22:01:35.567Z,26.77
2022-08-03T22:04:06.855Z,26.75
2022-08-03T22:06:33.873Z,26.72
2022-08-03T22:09:00.712Z,26.67
2022-08-03T22:11:27.738Z,26.62
2022-08-03T22:13:54.610Z,26.57
2022-08-03T22:16:21.642Z,26.50
2022-08-03T22:18:48.356Z,26.46
2022-08-03T22:21:16.902Z,26.43
2022-08-03T22:23:56.883Z,26.40
2022-08-03T22:26:34.700Z,26.37
2022-08-03T22:29:06.082Z,26.32
2022-08-03T22:31:58.439Z,26.26
2022-08-03T22:34:26.693Z,26.23
2022-08-03T22:36:57.842Z,26.20
2022-08-03T22:39:28.819Z,26.18
2022-08-03T22:41:59.089Z,26.16
2022-08-03T22:44:29.624Z,26.12
2022-08-03T22:46:56.277Z,26.09
2022-08-03T22:49:22.929Z,26.04
2022-08-03T22:51:51.681Z,26.01
2022-08-03T22:54:18.692Z,25.98
2022-08-03T22:56:47.031Z,25.95
2022-08-03T22:59:39.269Z,25.91
2022-08-03T23:02:15.007Z,25.88
2022-08-03T23:04:55.108Z,25.81
2022-08-03T23:07:53.544Z,25.75
2022-08-03T23:10:20.420Z,25.69
2022-08-03T23:12:49.266Z,25.66
2022-08-03T23:15:16.499Z,25.62
2022-08-03T23:17:57.233Z,25.58
2022-08-03T23:20:26.818Z,25.49
2022-08-03T23:22:55.219Z,25.49
2022-08-03T23:25:22.092Z,25.46
2022-08-03T23:28:05.593Z,25.43
2022-08-03T23:30:34.768Z,25.38
2022-08-03T23:33:03.076Z,25.37
2022-08-03T23:36:28.960Z,25.33
2022-08-03T23:38:36.817Z,25.28
2022-08-03T23:41:05.000Z,25.28
2022-08-03T23:43:45.249Z,25.24
2022-08-03T23:46:20.824Z,25.24
2022-08-03T23:48:47.388Z,25.24
2022-08-03T23:51:23.784Z,25.20
2022-08-03T23:54:18.039Z,25.14
2022-08-03T23:57:12.824Z,25.07
